This is the latest recevied weather packets stored in our database for station/object WBKK. If no packets are shown the sender has not sent any weather packets the latest 10 day(s).
| Time | Temp. | Humidity | Pressure | Rain* | Wind** | Luminosity | Snow |
|---|---|---|---|---|---|---|---|
| 1778004758 | 25.56° C | 94% | 1007 hPa | - | - | - | - |
| 1778002860 | 25.56° C | 94% | 1007 hPa | - | - | - | - |
| 1778001128 | 25.56° C | 94% | 1007 hPa | - | - | - | - |
| 1777999262 | 25.56° C | 94% | 1008 hPa | - | - | - | - |
| 1777997530 | 25.56° C | 94% | 1008 hPa | - | - | - | - |
| 1777995660 | 25.56° C | 94% | 1008 hPa | - | - | - | - |
| 1777995124 | 25.56° C | 94% | 1008 hPa | - | - | - | - |
| 1777994541 | 26.11° C | 82% | 1010 hPa | - | - | - | - |
| 1777993927 | 25.56° C | 94% | 1008 hPa | - | - | - | - |
| 1777992088 | 26.67° C | 88% | 1008 hPa | - | - | - | - |
| 1777990332 | 26.67° C | 94% | 1008 hPa | - | - | - | - |
| 1777988460 | 26.67° C | 88% | 1008 hPa | - | - | - | - |
| 1777986756 | 26.67° C | 94% | 1008 hPa | - | - | - | - |
| 1777984861 | 26.67° C | 94% | 1007 hPa | - | - | - | - |
| 1777983128 | 26.67° C | 94% | 1007 hPa | - | - | - | - |
| 1777981260 | 27.78° C | 88% | 1007 hPa | - | - | - | - |
| 1777979529 | 27.78° C | 88% | 1007 hPa | - | - | - | - |
| 1777977688 | 28.89° C | 83% | 1007 hPa | - | - | - | - |
| 1777975932 | 30° C | 79% | 1006 hPa | - | - | - | - |
| 1777974059 | 30° C | 79% | 1006 hPa | - | - | - | - |
| 1777972351 | 30.56° C | 74% | 1005 hPa | - | - | - | - |
| 1777970461 | 30.56° C | 74% | 1005 hPa | - | - | - | - |
| 1777968728 | 30.56° C | 74% | 1005 hPa | - | - | - | - |
| 1777966860 | 31.67° C | 70% | 1005 hPa | - | - | - | - |
| 1777965125 | 31.67° C | 70% | 1006 hPa | - | - | - | - |
* Rain since midnight (hover to see other rain measurements)
** Current wind speed in m/s (hover to see current wind gust speed)